TimeEET,TemperatureF,Dew PointF,Humidity,Sea Level PressureIn,VisibilityMPH,Wind Direction,Wind SpeedMPH,Gust SpeedMPH,PrecipitationIn,Events,Conditions,WindDirDegrees,DateUTC
12:20 AM,64.4,50.0,59,29.92,6.2,Variable,2.3,-,N/A,,Partly Cloudy,0,2012-11-02 22:20:00
12:50 AM,62.6,51.8,68,29.92,6.2,Variable,2.3,-,N/A,,Partly Cloudy,0,2012-11-02 22:50:00
1:20 AM,59.0,50.0,72,29.92,6.2,Variable,3.5,-,N/A,,Partly Cloudy,0,2012-11-02 23:20:00
1:50 AM,60.8,51.8,72,29.92,6.2,West,4.6,-,N/A,,Partly Cloudy,280,2012-11-02 23:50:00
2:20 AM,59.0,50.0,72,29.92,6.2,Variable,2.3,-,N/A,,Partly Cloudy,0,2012-11-03 00:20:00
2:50 AM,57.2,50.0,77,29.95,6.2,WNW,4.6,-,N/A,,Partly Cloudy,290,2012-11-03 00:50:00
3:20 AM,57.2,50.0,77,29.95,6.2,NW,3.5,-,N/A,,Scattered Clouds,310,2012-11-03 01:20:00
3:50 AM,59.0,50.0,72,29.95,6.2,Variable,2.3,-,N/A,,Partly Cloudy,0,2012-11-03 01:50:00
4:20 AM,55.4,50.0,82,29.95,6.2,Calm,Calm,-,N/A,,Partly Cloudy,0,2012-11-03 02:20:00
4:50 AM,55.4,50.0,82,29.95,6.2,Variable,3.5,-,N/A,,Partly Cloudy,0,2012-11-03 02:50:00
5:20 AM,57.2,51.8,82,29.98,6.2,WNW,2.3,-,N/A,,Scattered Clouds,300,2012-11-03 03:20:00
5:50 AM,57.2,50.0,77,29.98,6.2,Variable,1.2,-,N/A,,Scattered Clouds,0,2012-11-03 03:50:00
6:20 AM,55.4,50.0,82,29.98,6.2,Calm,Calm,-,N/A,,Scattered Clouds,0,2012-11-03 04:20:00
6:50 AM,57.2,48.2,72,29.98,6.2,West,2.3,-,N/A,,Scattered Clouds,280,2012-11-03 04:50:00
7:20 AM,57.2,50.0,77,29.98,6.2,West,3.5,-,N/A,,Partly Cloudy,260,2012-11-03 05:20:00
7:50 AM,59.0,51.8,77,30.01,6.2,Variable,2.3,-,N/A,,Partly Cloudy,0,2012-11-03 05:50:00
8:20 AM,60.8,51.8,72,30.01,6.2,Calm,Calm,-,N/A,,Scattered Clouds,0,2012-11-03 06:20:00
8:50 AM,64.4,53.6,68,30.01,6.2,Calm,Calm,-,N/A,,Scattered Clouds,0,2012-11-03 06:50:00
9:20 AM,68.0,53.6,60,30.01,6.2,Variable,2.3,-,N/A,,Scattered Clouds,0,2012-11-03 07:20:00
9:50 AM,69.8,51.8,53,30.04,6.2,Variable,2.3,-,N/A,,Scattered Clouds,0,2012-11-03 07:50:00
10:20 AM,73.4,51.8,47,30.04,6.2,Variable,1.2,-,N/A,,Scattered Clouds,0,2012-11-03 08:20:00
10:50 AM,73.4,50.0,44,30.04,6.2,ENE,5.8,-,N/A,,Scattered Clouds,60,2012-11-03 08:50:00
11:20 AM,73.4,50.0,44,30.04,6.2,ENE,8.1,-,N/A,,Scattered Clouds,60,2012-11-03 09:20:00
11:50 AM,75.2,50.0,41,30.04,6.2,NE,9.2,-,N/A,,Scattered Clouds,50,2012-11-03 09:50:00
12:20 PM,75.2,50.0,41,30.04,6.2,NE,10.4,-,N/A,,Scattered Clouds,50,2012-11-03 10:20:00
12:50 PM,75.2,50.0,41,30.04,6.2,NE,10.4,-,N/A,,Scattered Clouds,50,2012-11-03 10:50:00
1:20 PM,75.2,51.8,44,30.04,6.2,NE,11.5,-,N/A,,Scattered Clouds,40,2012-11-03 11:20:00
1:50 PM,73.4,51.8,47,30.01,6.2,NE,11.5,-,N/A,,Scattered Clouds,50,2012-11-03 11:50:00
2:20 PM,73.4,51.8,47,30.01,6.2,NE,11.5,-,N/A,,Scattered Clouds,40,2012-11-03 12:20:00
2:50 PM,73.4,51.8,47,30.04,6.2,NNE,10.4,-,N/A,,Scattered Clouds,30,2012-11-03 12:50:00
3:20 PM,73.4,51.8,47,30.04,6.2,NNE,10.4,-,N/A,,Scattered Clouds,30,2012-11-03 13:20:00
3:50 PM,73.4,53.6,50,30.04,6.2,NNE,10.4,-,N/A,,Scattered Clouds,30,2012-11-03 13:50:00
4:20 PM,71.6,51.8,50,30.04,6.2,NNE,9.2,-,N/A,,Scattered Clouds,20,2012-11-03 14:20:00
4:50 PM,71.6,53.6,53,30.04,6.2,NNE,6.9,-,N/A,,Scattered Clouds,20,2012-11-03 14:50:00
5:20 PM,69.8,55.4,60,30.04,6.2,NNE,4.6,-,N/A,,Scattered Clouds,20,2012-11-03 15:20:00
5:50 PM,68.0,55.4,64,30.04,6.2,NNE,3.5,-,N/A,,Mostly Cloudy,20,2012-11-03 15:50:00
6:20 PM,68.0,57.2,68,30.04,6.2,Variable,3.5,-,N/A,,Scattered Clouds,0,2012-11-03 16:20:00
6:50 PM,66.2,55.4,68,30.04,6.2,Variable,1.2,-,N/A,,Scattered Clouds,0,2012-11-03 16:50:00
7:20 PM,66.2,57.2,73,30.04,6.2,Variable,1.2,-,N/A,,Scattered Clouds,0,2012-11-03 17:20:00
7:50 PM,64.4,57.2,77,30.06,6.2,Variable,1.2,-,N/A,,Scattered Clouds,0,2012-11-03 17:50:00
8:20 PM,64.4,55.4,73,30.06,6.2,WNW,1.2,-,N/A,,Scattered Clouds,290,2012-11-03 18:20:00
8:50 PM,64.4,55.4,73,30.06,6.2,West,3.5,-,N/A,,Partly Cloudy,260,2012-11-03 18:50:00
9:20 PM,62.6,53.6,72,30.06,-9999.0,West,3.5,-,N/A,,Clear,260,2012-11-03 19:20:00
9:50 PM,60.8,51.8,72,30.06,-9999.0,West,4.6,-,N/A,,Clear,280,2012-11-03 19:50:00
10:20 PM,60.8,53.6,77,30.06,-9999.0,West,3.5,-,N/A,,Clear,280,2012-11-03 20:20:00
10:50 PM,59.0,51.8,77,30.06,-9999.0,West,2.3,-,N/A,,Clear,260,2012-11-03 20:50:00
11:20 PM,57.2,53.6,88,30.06,-9999.0,WNW,4.6,-,N/A,,Clear,300,2012-11-03 21:20:00
11:50 PM,57.2,53.6,88,30.06,-9999.0,West,2.3,-,N/A,,Clear,280,2012-11-03 21:50:00